OETR

Turaif Domestic Airport

Saudi Arabia
TAF OETR 201100Z 2012/2118 27010G20KT 7000 FEW040 TEMPO 2012/2018 3500 DU BLDU
Issued Valid From Valid To
Apr-20 @ 11:00 UTC
(8 hours ago)
Apr-20 @ 12:00 UTC
(7 hours ago)
Apr-21 @ 18:00 UTC
(in 23 hours)
Apr-20 @ 12:00 to Apr-21 @ 18:00
TAF OETR 201100Z 2012/2118 27010G20KT 7000 FEW040
Wind Visibility Clouds
270° at 10 knots
 Gusting to 20 knots
7,001 meters
  • Few at 4,000' AGL
Expired Click to View Apr-20 @ 12:00 to Apr-20 @ 18:00
TEMPO 2012/2018 3500 DU BLDU
Visibility Conditions
3,492 meters
  • Dust
  • Blowing
  • Dust
TAF OETR 201100Z 2012/2118 27010G20KT 7000 FEW040 TEMPO 2012/2018 3500 DU BLDU
Issued Apr-20 @ 11:00 UTC
(8 hours ago)
Valid From Apr-20 @ 12:00 UTC
(7 hours ago)
Valid To Apr-21 @ 18:00 UTC
(in 23 hours)
Apr-20 @ 12:00 - Apr-21 @ 18:00
Wind Visibility
270° at 10 knots
 Gusting to 20 knots
7,001 meters
Clouds
  • Few at 4,000' AGL
Apr-20 @ 12:00 - Apr-20 @ 18:00
Conditions
  • Dust
  • Blowing
  • Dust